sensor_id;sensor_type;location;lat;lon;timestamp;P1;durP1;ratioP1;P2;durP2;ratioP2
6269;SDS011;3168;51.684;6.954;2022-08-24T00:01:56;3.70;;;3.17;;
6269;SDS011;3168;51.684;6.954;2022-08-24T00:04:22;2.87;;;2.77;;
6269;SDS011;3168;51.684;6.954;2022-08-24T00:06:48;2.60;;;2.47;;
6269;SDS011;3168;51.684;6.954;2022-08-24T00:09:14;7.00;;;3.60;;
6269;SDS011;3168;51.684;6.954;2022-08-24T00:11:40;2.50;;;2.40;;
6269;SDS011;3168;51.684;6.954;2022-08-24T00:14:06;2.73;;;2.60;;
6269;SDS011;3168;51.684;6.954;2022-08-24T00:16:31;3.07;;;2.90;;
6269;SDS011;3168;51.684;6.954;2022-08-24T00:18:57;3.37;;;2.90;;
6269;SDS011;3168;51.684;6.954;2022-08-24T00:21:23;2.60;;;2.50;;
6269;SDS011;3168;51.684;6.954;2022-08-24T00:23:49;3.33;;;3.13;;
6269;SDS011;3168;51.684;6.954;2022-08-24T00:26:15;2.43;;;2.43;;
6269;SDS011;3168;51.684;6.954;2022-08-24T00:28:41;3.10;;;3.00;;
6269;SDS011;3168;51.684;6.954;2022-08-24T00:31:07;2.33;;;2.23;;
6269;SDS011;3168;51.684;6.954;2022-08-24T00:33:32;2.70;;;2.60;;
6269;SDS011;3168;51.684;6.954;2022-08-24T00:35:58;3.30;;;3.10;;
6269;SDS011;3168;51.684;6.954;2022-08-24T00:38:24;9.13;;;3.13;;
6269;SDS011;3168;51.684;6.954;2022-08-24T00:40:50;23.47;;;3.53;;
6269;SDS011;3168;51.684;6.954;2022-08-24T00:43:18;2.80;;;2.40;;
6269;SDS011;3168;51.684;6.954;2022-08-24T00:45:43;2.63;;;2.53;;
6269;SDS011;3168;51.684;6.954;2022-08-24T00:48:10;3.30;;;3.10;;
6269;SDS011;3168;51.684;6.954;2022-08-24T00:50:36;2.70;;;2.60;;
6269;SDS011;3168;51.684;6.954;2022-08-24T00:53:00;2.90;;;2.70;;
6269;SDS011;3168;51.684;6.954;2022-08-24T00:55:28;3.30;;;3.10;;
6269;SDS011;3168;51.684;6.954;2022-08-24T00:57:54;3.67;;;3.47;;
6269;SDS011;3168;51.684;6.954;2022-08-24T01:00:22;7.03;;;3.23;;
6269;SDS011;3168;51.684;6.954;2022-08-24T01:02:46;3.13;;;2.73;;
6269;SDS011;3168;51.684;6.954;2022-08-24T01:05:10;2.80;;;2.70;;
6269;SDS011;3168;51.684;6.954;2022-08-24T01:07:37;3.17;;;2.97;;
6269;SDS011;3168;51.684;6.954;2022-08-24T01:10:05;12.13;;;3.50;;
6269;SDS011;3168;51.684;6.954;2022-08-24T01:12:30;3.70;;;3.50;;
6269;SDS011;3168;51.684;6.954;2022-08-24T01:14:56;4.00;;;3.07;;
6269;SDS011;3168;51.684;6.954;2022-08-24T01:17:21;4.50;;;3.23;;
6269;SDS011;3168;51.684;6.954;2022-08-24T01:19:54;3.00;;;2.90;;
6269;SDS011;3168;51.684;6.954;2022-08-24T01:22:24;3.93;;;3.00;;
6269;SDS011;3168;51.684;6.954;2022-08-24T01:24:50;7.23;;;2.80;;
6269;SDS011;3168;51.684;6.954;2022-08-24T01:27:16;4.40;;;4.10;;
6269;SDS011;3168;51.684;6.954;2022-08-24T01:29:42;3.73;;;3.50;;
6269;SDS011;3168;51.684;6.954;2022-08-24T01:32:07;3.03;;;2.93;;
6269;SDS011;3168;51.684;6.954;2022-08-24T01:34:34;3.43;;;3.33;;
6269;SDS011;3168;51.684;6.954;2022-08-24T01:36:59;3.30;;;3.20;;
6269;SDS011;3168;51.684;6.954;2022-08-24T01:39:26;2.97;;;2.87;;
6269;SDS011;3168;51.684;6.954;2022-08-24T01:41:51;3.90;;;3.80;;
6269;SDS011;3168;51.684;6.954;2022-08-24T01:44:18;3.97;;;3.70;;
6269;SDS011;3168;51.684;6.954;2022-08-24T01:46:44;3.57;;;3.30;;
6269;SDS011;3168;51.684;6.954;2022-08-24T01:49:09;8.93;;;2.93;;
6269;SDS011;3168;51.684;6.954;2022-08-24T01:51:35;3.60;;;3.47;;
6269;SDS011;3168;51.684;6.954;2022-08-24T01:54:02;3.87;;;3.60;;
6269;SDS011;3168;51.684;6.954;2022-08-24T01:56:27;2.87;;;2.77;;
6269;SDS011;3168;51.684;6.954;2022-08-24T01:58:53;5.70;;;3.30;;
6269;SDS011;3168;51.684;6.954;2022-08-24T02:01:19;3.13;;;3.03;;
6269;SDS011;3168;51.684;6.954;2022-08-24T02:03:45;4.40;;;4.00;;
6269;SDS011;3168;51.684;6.954;2022-08-24T02:06:10;3.03;;;2.92;;
6269;SDS011;3168;51.684;6.954;2022-08-24T02:08:37;4.07;;;3.53;;
6269;SDS011;3168;51.684;6.954;2022-08-24T02:11:05;9.13;;;3.10;;
6269;SDS011;3168;51.684;6.954;2022-08-24T02:13:30;3.27;;;3.03;;
6269;SDS011;3168;51.684;6.954;2022-08-24T02:15:56;3.40;;;3.30;;
6269;SDS011;3168;51.684;6.954;2022-08-24T02:18:22;3.83;;;3.63;;
6269;SDS011;3168;51.684;6.954;2022-08-24T02:20:47;4.63;;;4.17;;
6269;SDS011;3168;51.684;6.954;2022-08-24T02:23:13;3.70;;;3.60;;
6269;SDS011;3168;51.684;6.954;2022-08-24T02:25:39;4.27;;;3.97;;
6269;SDS011;3168;51.684;6.954;2022-08-24T02:28:05;6.63;;;4.20;;
6269;SDS011;3168;51.684;6.954;2022-08-24T02:30:31;3.83;;;3.63;;
6269;SDS011;3168;51.684;6.954;2022-08-24T02:32:57;3.50;;;3.40;;
6269;SDS011;3168;51.684;6.954;2022-08-24T02:35:23;3.20;;;3.10;;
6269;SDS011;3168;51.684;6.954;2022-08-24T02:37:49;6.73;;;3.70;;
6269;SDS011;3168;51.684;6.954;2022-08-24T02:40:14;4.20;;;4.00;;
6269;SDS011;3168;51.684;6.954;2022-08-24T02:42:40;3.30;;;3.10;;
6269;SDS011;3168;51.684;6.954;2022-08-24T02:45:07;4.57;;;4.17;;
6269;SDS011;3168;51.684;6.954;2022-08-24T02:47:34;3.13;;;2.93;;
6269;SDS011;3168;51.684;6.954;2022-08-24T02:50:00;4.67;;;4.47;;
6269;SDS011;3168;51.684;6.954;2022-08-24T02:52:25;3.90;;;3.77;;
6269;SDS011;3168;51.684;6.954;2022-08-24T02:54:51;3.80;;;3.60;;
6269;SDS011;3168;51.684;6.954;2022-08-24T02:57:17;4.63;;;4.33;;
6269;SDS011;3168;51.684;6.954;2022-08-24T02:59:42;4.47;;;4.27;;
6269;SDS011;3168;51.684;6.954;2022-08-24T03:02:08;4.03;;;3.63;;
6269;SDS011;3168;51.684;6.954;2022-08-24T03:04:34;3.30;;;3.20;;
6269;SDS011;3168;51.684;6.954;2022-08-24T03:07:00;4.87;;;4.30;;
6269;SDS011;3168;51.684;6.954;2022-08-24T03:09:26;3.50;;;3.40;;
6269;SDS011;3168;51.684;6.954;2022-08-24T03:11:52;4.97;;;3.97;;
6269;SDS011;3168;51.684;6.954;2022-08-24T03:14:17;3.40;;;3.20;;
6269;SDS011;3168;51.684;6.954;2022-08-24T03:16:43;4.03;;;3.83;;
6269;SDS011;3168;51.684;6.954;2022-08-24T03:19:09;3.70;;;3.60;;
6269;SDS011;3168;51.684;6.954;2022-08-24T03:21:35;3.77;;;3.60;;
6269;SDS011;3168;51.684;6.954;2022-08-24T03:24:01;3.90;;;3.70;;
6269;SDS011;3168;51.684;6.954;2022-08-24T03:26:27;3.93;;;3.73;;
6269;SDS011;3168;51.684;6.954;2022-08-24T03:28:53;4.53;;;3.87;;
6269;SDS011;3168;51.684;6.954;2022-08-24T03:31:19;4.03;;;3.80;;
6269;SDS011;3168;51.684;6.954;2022-08-24T03:33:45;3.67;;;3.47;;
6269;SDS011;3168;51.684;6.954;2022-08-24T03:36:11;4.93;;;3.50;;
6269;SDS011;3168;51.684;6.954;2022-08-24T03:38:36;3.63;;;3.53;;
6269;SDS011;3168;51.684;6.954;2022-08-24T03:41:03;3.70;;;3.50;;
6269;SDS011;3168;51.684;6.954;2022-08-24T03:43:29;3.77;;;3.67;;
6269;SDS011;3168;51.684;6.954;2022-08-24T03:46:03;5.40;;;5.10;;
6269;SDS011;3168;51.684;6.954;2022-08-24T03:48:27;4.20;;;4.00;;
6269;SDS011;3168;51.684;6.954;2022-08-24T03:50:53;3.60;;;3.50;;
6269;SDS011;3168;51.684;6.954;2022-08-24T03:53:18;4.73;;;4.50;;
6269;SDS011;3168;51.684;6.954;2022-08-24T03:55:44;4.60;;;4.30;;
6269;SDS011;3168;51.684;6.954;2022-08-24T03:58:10;4.27;;;4.13;;
6269;SDS011;3168;51.684;6.954;2022-08-24T04:00:36;3.87;;;3.77;;
6269;SDS011;3168;51.684;6.954;2022-08-24T04:03:02;3.50;;;3.40;;
6269;SDS011;3168;51.684;6.954;2022-08-24T04:05:27;5.33;;;3.60;;
6269;SDS011;3168;51.684;6.954;2022-08-24T04:07:53;4.80;;;4.50;;
6269;SDS011;3168;51.684;6.954;2022-08-24T04:10:19;4.10;;;4.00;;
6269;SDS011;3168;51.684;6.954;2022-08-24T04:12:45;5.10;;;4.80;;
6269;SDS011;3168;51.684;6.954;2022-08-24T04:15:11;6.40;;;4.67;;
6269;SDS011;3168;51.684;6.954;2022-08-24T04:17:37;3.93;;;3.77;;
6269;SDS011;3168;51.684;6.954;2022-08-24T04:20:03;4.47;;;4.07;;
6269;SDS011;3168;51.684;6.954;2022-08-24T04:22:30;4.50;;;4.20;;
6269;SDS011;3168;51.684;6.954;2022-08-24T04:24:55;4.07;;;3.87;;
6269;SDS011;3168;51.684;6.954;2022-08-24T04:27:21;4.40;;;4.10;;
6269;SDS011;3168;51.684;6.954;2022-08-24T04:29:47;4.27;;;4.07;;
6269;SDS011;3168;51.684;6.954;2022-08-24T04:32:13;4.37;;;4.13;;
6269;SDS011;3168;51.684;6.954;2022-08-24T04:34:39;4.50;;;4.17;;
6269;SDS011;3168;51.684;6.954;2022-08-24T04:37:04;4.43;;;4.23;;
6269;SDS011;3168;51.684;6.954;2022-08-24T04:39:30;4.00;;;3.80;;
6269;SDS011;3168;51.684;6.954;2022-08-24T04:41:57;3.90;;;3.70;;
6269;SDS011;3168;51.684;6.954;2022-08-24T04:44:23;4.03;;;3.87;;
6269;SDS011;3168;51.684;6.954;2022-08-24T04:46:48;5.23;;;4.43;;
6269;SDS011;3168;51.684;6.954;2022-08-24T04:49:14;4.70;;;4.43;;
6269;SDS011;3168;51.684;6.954;2022-08-24T04:51:40;3.20;;;3.00;;
6269;SDS011;3168;51.684;6.954;2022-08-24T04:54:07;4.17;;;3.87;;
6269;SDS011;3168;51.684;6.954;2022-08-24T04:56:33;4.13;;;3.90;;
6269;SDS011;3168;51.684;6.954;2022-08-24T04:59:00;6.63;;;4.00;;
6269;SDS011;3168;51.684;6.954;2022-08-24T05:01:26;8.17;;;5.77;;
6269;SDS011;3168;51.684;6.954;2022-08-24T05:03:52;4.33;;;4.03;;
6269;SDS011;3168;51.684;6.954;2022-08-24T05:06:17;7.33;;;5.27;;
6269;SDS011;3168;51.684;6.954;2022-08-24T05:08:43;5.53;;;4.40;;
6269;SDS011;3168;51.684;6.954;2022-08-24T05:11:09;4.57;;;4.33;;
6269;SDS011;3168;51.684;6.954;2022-08-24T05:13:35;5.93;;;5.63;;
6269;SDS011;3168;51.684;6.954;2022-08-24T05:16:04;5.00;;;4.80;;
6269;SDS011;3168;51.684;6.954;2022-08-24T05:18:27;13.30;;;5.73;;
6269;SDS011;3168;51.684;6.954;2022-08-24T05:20:53;5.67;;;5.17;;
6269;SDS011;3168;51.684;6.954;2022-08-24T05:23:19;5.23;;;4.73;;
6269;SDS011;3168;51.684;6.954;2022-08-24T05:25:45;4.43;;;4.23;;
6269;SDS011;3168;51.684;6.954;2022-08-24T05:28:11;4.90;;;4.60;;
6269;SDS011;3168;51.684;6.954;2022-08-24T05:30:37;6.17;;;5.60;;
6269;SDS011;3168;51.684;6.954;2022-08-24T05:33:02;6.47;;;6.00;;
6269;SDS011;3168;51.684;6.954;2022-08-24T05:35:28;4.63;;;4.43;;
6269;SDS011;3168;51.684;6.954;2022-08-24T05:37:54;5.70;;;5.40;;
6269;SDS011;3168;51.684;6.954;2022-08-24T05:40:20;6.60;;;5.23;;
6269;SDS011;3168;51.684;6.954;2022-08-24T05:42:46;6.07;;;5.77;;
6269;SDS011;3168;51.684;6.954;2022-08-24T05:45:12;5.30;;;5.10;;
6269;SDS011;3168;51.684;6.954;2022-08-24T05:47:38;7.40;;;6.70;;
6269;SDS011;3168;51.684;6.954;2022-08-24T05:50:04;5.93;;;5.50;;
6269;SDS011;3168;51.684;6.954;2022-08-24T05:52:30;5.10;;;4.90;;
6269;SDS011;3168;51.684;6.954;2022-08-24T05:54:57;5.43;;;4.93;;
6269;SDS011;3168;51.684;6.954;2022-08-24T05:57:23;5.43;;;5.10;;
6269;SDS011;3168;51.684;6.954;2022-08-24T05:59:48;8.20;;;6.43;;
6269;SDS011;3168;51.684;6.954;2022-08-24T06:02:14;8.07;;;6.80;;
6269;SDS011;3168;51.684;6.954;2022-08-24T06:04:39;6.30;;;5.97;;
6269;SDS011;3168;51.684;6.954;2022-08-24T06:07:06;6.87;;;6.32;;
6269;SDS011;3168;51.684;6.954;2022-08-24T06:09:33;7.20;;;6.70;;
6269;SDS011;3168;51.684;6.954;2022-08-24T06:11:59;8.57;;;7.43;;
6269;SDS011;3168;51.684;6.954;2022-08-24T06:14:24;7.80;;;6.93;;
6269;SDS011;3168;51.684;6.954;2022-08-24T06:16:50;8.37;;;7.17;;
6269;SDS011;3168;51.684;6.954;2022-08-24T06:19:17;7.63;;;7.20;;
6269;SDS011;3168;51.684;6.954;2022-08-24T06:21:42;8.23;;;7.60;;
6269;SDS011;3168;51.684;6.954;2022-08-24T06:24:08;7.30;;;6.60;;
6269;SDS011;3168;51.684;6.954;2022-08-24T06:26:34;11.63;;;6.47;;
6269;SDS011;3168;51.684;6.954;2022-08-24T06:29:06;8.83;;;8.23;;
6269;SDS011;3168;51.684;6.954;2022-08-24T06:31:34;7.07;;;6.60;;
6269;SDS011;3168;51.684;6.954;2022-08-24T06:33:59;7.37;;;6.63;;
6269;SDS011;3168;51.684;6.954;2022-08-24T06:36:25;10.23;;;9.23;;
6269;SDS011;3168;51.684;6.954;2022-08-24T06:38:51;9.40;;;8.60;;
6269;SDS011;3168;51.684;6.954;2022-08-24T06:41:17;9.03;;;8.37;;
6269;SDS011;3168;51.684;6.954;2022-08-24T06:43:42;8.70;;;7.93;;
6269;SDS011;3168;51.684;6.954;2022-08-24T06:46:08;11.70;;;8.40;;
6269;SDS011;3168;51.684;6.954;2022-08-24T06:48:34;9.50;;;7.90;;
6269;SDS011;3168;51.684;6.954;2022-08-24T06:51:00;7.77;;;7.27;;
6269;SDS011;3168;51.684;6.954;2022-08-24T06:53:27;8.20;;;7.60;;
6269;SDS011;3168;51.684;6.954;2022-08-24T06:55:54;6.60;;;6.20;;
6269;SDS011;3168;51.684;6.954;2022-08-24T06:58:20;7.33;;;6.70;;
6269;SDS011;3168;51.684;6.954;2022-08-24T07:00:47;8.43;;;7.63;;
6269;SDS011;3168;51.684;6.954;2022-08-24T07:03:13;8.30;;;7.57;;
6269;SDS011;3168;51.684;6.954;2022-08-24T07:05:38;12.27;;;7.50;;
6269;SDS011;3168;51.684;6.954;2022-08-24T07:08:04;7.97;;;7.33;;
6269;SDS011;3168;51.684;6.954;2022-08-24T07:10:31;17.03;;;8.43;;
6269;SDS011;3168;51.684;6.954;2022-08-24T07:12:57;7.67;;;7.10;;
6269;SDS011;3168;51.684;6.954;2022-08-24T07:15:23;8.13;;;7.53;;
6269;SDS011;3168;51.684;6.954;2022-08-24T07:17:48;10.60;;;8.10;;
6269;SDS011;3168;51.684;6.954;2022-08-24T07:20:14;6.80;;;6.47;;
6269;SDS011;3168;51.684;6.954;2022-08-24T07:22:40;9.00;;;8.30;;
6269;SDS011;3168;51.684;6.954;2022-08-24T07:25:07;7.57;;;7.07;;
6269;SDS011;3168;51.684;6.954;2022-08-24T07:27:34;26.17;;;6.53;;
6269;SDS011;3168;51.684;6.954;2022-08-24T07:30:00;6.73;;;6.23;;
6269;SDS011;3168;51.684;6.954;2022-08-24T07:32:26;7.40;;;6.70;;
6269;SDS011;3168;51.684;6.954;2022-08-24T07:34:52;6.63;;;6.00;;
6269;SDS011;3168;51.684;6.954;2022-08-24T07:37:18;7.53;;;6.93;;
6269;SDS011;3168;51.684;6.954;2022-08-24T07:39:43;7.30;;;6.90;;
6269;SDS011;3168;51.684;6.954;2022-08-24T07:42:09;7.50;;;6.90;;
6269;SDS011;3168;51.684;6.954;2022-08-24T07:44:36;7.20;;;6.47;;
6269;SDS011;3168;51.684;6.954;2022-08-24T07:47:04;6.03;;;4.73;;
6269;SDS011;3168;51.684;6.954;2022-08-24T07:49:29;10.20;;;7.03;;
6269;SDS011;3168;51.684;6.954;2022-08-24T07:51:55;6.43;;;5.40;;
6269;SDS011;3168;51.684;6.954;2022-08-24T07:54:21;7.50;;;5.83;;
6269;SDS011;3168;51.684;6.954;2022-08-24T07:56:46;6.53;;;5.83;;
6269;SDS011;3168;51.684;6.954;2022-08-24T07:59:12;4.70;;;4.30;;
6269;SDS011;3168;51.684;6.954;2022-08-24T08:01:39;5.77;;;5.20;;
6269;SDS011;3168;51.684;6.954;2022-08-24T08:04:04;5.00;;;4.80;;
6269;SDS011;3168;51.684;6.954;2022-08-24T08:06:30;8.10;;;6.00;;
6269;SDS011;3168;51.684;6.954;2022-08-24T08:08:56;6.80;;;4.73;;
6269;SDS011;3168;51.684;6.954;2022-08-24T08:11:22;4.90;;;4.70;;
6269;SDS011;3168;51.684;6.954;2022-08-24T08:13:48;5.90;;;5.43;;
6269;SDS011;3168;51.684;6.954;2022-08-24T08:16:14;6.60;;;6.10;;
6269;SDS011;3168;51.684;6.954;2022-08-24T08:18:40;4.47;;;4.30;;
6269;SDS011;3168;51.684;6.954;2022-08-24T08:21:06;3.20;;;3.10;;
6269;SDS011;3168;51.684;6.954;2022-08-24T08:23:32;4.20;;;4.00;;
6269;SDS011;3168;51.684;6.954;2022-08-24T08:26:05;3.37;;;3.07;;
6269;SDS011;3168;51.684;6.954;2022-08-24T08:28:30;3.93;;;2.83;;
6269;SDS011;3168;51.684;6.954;2022-08-24T08:30:56;5.17;;;2.80;;
6269;SDS011;3168;51.684;6.954;2022-08-24T08:33:22;4.13;;;2.43;;
6269;SDS011;3168;51.684;6.954;2022-08-24T08:35:48;5.03;;;3.13;;
6269;SDS011;3168;51.684;6.954;2022-08-24T08:38:14;3.20;;;3.07;;
6269;SDS011;3168;51.684;6.954;2022-08-24T08:40:49;3.50;;;3.30;;
6269;SDS011;3168;51.684;6.954;2022-08-24T08:44:24;3.17;;;2.83;;
6269;SDS011;3168;51.684;6.954;2022-08-24T08:46:03;3.20;;;3.10;;
6269;SDS011;3168;51.684;6.954;2022-08-24T08:48:32;8.50;;;2.80;;
6269;SDS011;3168;51.684;6.954;2022-08-24T08:51:08;2.20;;;2.20;;
6269;SDS011;3168;51.684;6.954;2022-08-24T08:56:27;3.03;;;2.83;;
6269;SDS011;3168;51.684;6.954;2022-08-24T08:58:55;2.53;;;2.33;;
6269;SDS011;3168;51.684;6.954;2022-08-24T09:04:05;2.73;;;2.30;;
6269;SDS011;3168;51.684;6.954;2022-08-24T09:06:46;1.97;;;1.83;;
6269;SDS011;3168;51.684;6.954;2022-08-24T09:09:35;2.58;;;2.47;;
6269;SDS011;3168;51.684;6.954;2022-08-24T09:14:58;1.83;;;1.73;;
6269;SDS011;3168;51.684;6.954;2022-08-24T09:17:49;2.23;;;2.13;;
6269;SDS011;3168;51.684;6.954;2022-08-24T09:20:24;4.20;;;2.40;;
6269;SDS011;3168;51.684;6.954;2022-08-24T09:23:00;1.20;;;1.20;;
6269;SDS011;3168;51.684;6.954;2022-08-24T09:25:35;1.70;;;1.60;;
6269;SDS011;3168;51.684;6.954;2022-08-24T09:28:39;1.70;;;1.60;;
6269;SDS011;3168;51.684;6.954;2022-08-24T09:33:30;2.00;;;2.00;;
6269;SDS011;3168;51.684;6.954;2022-08-24T09:38:41;1.80;;;1.70;;
6269;SDS011;3168;51.684;6.954;2022-08-24T09:41:17;1.37;;;1.37;;
6269;SDS011;3168;51.684;6.954;2022-08-24T09:44:03;3.07;;;2.87;;
6269;SDS011;3168;51.684;6.954;2022-08-24T09:46:32;2.87;;;2.20;;
6269;SDS011;3168;51.684;6.954;2022-08-24T09:49:04;2.10;;;2.00;;
6269;SDS011;3168;51.684;6.954;2022-08-24T09:52:40;1.87;;;1.77;;
6269;SDS011;3168;51.684;6.954;2022-08-24T09:54:54;1.30;;;1.30;;
6269;SDS011;3168;51.684;6.954;2022-08-24T09:57:20;4.50;;;2.10;;
6269;SDS011;3168;51.684;6.954;2022-08-24T10:00:23;1.30;;;1.30;;
6269;SDS011;3168;51.684;6.954;2022-08-24T10:05:21;2.73;;;1.33;;
6269;SDS011;3168;51.684;6.954;2022-08-24T10:08:08;2.50;;;1.67;;
6269;SDS011;3168;51.684;6.954;2022-08-24T10:13:44;1.70;;;1.70;;
6269;SDS011;3168;51.684;6.954;2022-08-24T10:18:48;7.70;;;1.53;;
6269;SDS011;3168;51.684;6.954;2022-08-24T10:21:30;3.53;;;1.33;;
6269;SDS011;3168;51.684;6.954;2022-08-24T10:24:02;1.43;;;1.43;;
6269;SDS011;3168;51.684;6.954;2022-08-24T10:29:54;1.40;;;1.40;;
6269;SDS011;3168;51.684;6.954;2022-08-24T10:32:51;1.27;;;1.20;;
6269;SDS011;3168;51.684;6.954;2022-08-24T10:35:16;1.63;;;1.63;;
6269;SDS011;3168;51.684;6.954;2022-08-24T10:37:50;1.57;;;1.47;;
6269;SDS011;3168;51.684;6.954;2022-08-24T10:40:37;1.60;;;1.50;;
6269;SDS011;3168;51.684;6.954;2022-08-24T10:46:09;1.93;;;1.83;;
6269;SDS011;3168;51.684;6.954;2022-08-24T10:48:59;1.80;;;1.80;;
6269;SDS011;3168;51.684;6.954;2022-08-24T10:51:33;2.20;;;2.00;;
6269;SDS011;3168;51.684;6.954;2022-08-24T10:53:59;1.53;;;1.53;;
6269;SDS011;3168;51.684;6.954;2022-08-24T10:56:28;3.10;;;2.17;;
6269;SDS011;3168;51.684;6.954;2022-08-24T10:59:08;2.20;;;2.10;;
6269;SDS011;3168;51.684;6.954;2022-08-24T11:01:38;5.13;;;1.70;;
6269;SDS011;3168;51.684;6.954;2022-08-24T11:04:06;2.07;;;1.97;;
6269;SDS011;3168;51.684;6.954;2022-08-24T11:06:40;3.00;;;2.20;;
6269;SDS011;3168;51.684;6.954;2022-08-24T11:09:06;2.33;;;2.10;;
6269;SDS011;3168;51.684;6.954;2022-08-24T11:11:35;2.90;;;1.60;;
6269;SDS011;3168;51.684;6.954;2022-08-24T11:14:01;2.33;;;2.23;;
6269;SDS011;3168;51.684;6.954;2022-08-24T11:16:28;1.80;;;1.80;;
6269;SDS011;3168;51.684;6.954;2022-08-24T11:18:53;1.30;;;1.30;;
6269;SDS011;3168;51.684;6.954;2022-08-24T11:21:19;2.30;;;1.63;;
6269;SDS011;3168;51.684;6.954;2022-08-24T11:23:46;1.77;;;1.40;;
6269;SDS011;3168;51.684;6.954;2022-08-24T11:26:18;1.17;;;1.17;;
6269;SDS011;3168;51.684;6.954;2022-08-24T11:28:42;1.60;;;1.53;;
6269;SDS011;3168;51.684;6.954;2022-08-24T11:31:20;1.20;;;1.20;;
6269;SDS011;3168;51.684;6.954;2022-08-24T11:33:46;1.43;;;1.33;;
6269;SDS011;3168;51.684;6.954;2022-08-24T11:36:15;2.27;;;2.17;;
6269;SDS011;3168;51.684;6.954;2022-08-24T11:38:39;1.80;;;1.70;;
6269;SDS011;3168;51.684;6.954;2022-08-24T11:41:06;1.30;;;1.30;;
6269;SDS011;3168;51.684;6.954;2022-08-24T11:44:09;1.30;;;1.30;;
6269;SDS011;3168;51.684;6.954;2022-08-24T11:46:36;1.57;;;1.57;;
6269;SDS011;3168;51.684;6.954;2022-08-24T11:49:12;1.50;;;1.50;;
6269;SDS011;3168;51.684;6.954;2022-08-24T11:51:54;1.70;;;1.70;;
6269;SDS011;3168;51.684;6.954;2022-08-24T11:54:33;1.60;;;1.60;;
6269;SDS011;3168;51.684;6.954;2022-08-24T11:57:08;4.93;;;1.47;;
6269;SDS011;3168;51.684;6.954;2022-08-24T11:59:42;1.50;;;1.50;;
6269;SDS011;3168;51.684;6.954;2022-08-24T12:05:11;4.43;;;1.90;;
6269;SDS011;3168;51.684;6.954;2022-08-24T12:08:15;1.23;;;1.23;;
6269;SDS011;3168;51.684;6.954;2022-08-24T12:10:36;1.20;;;1.20;;
6269;SDS011;3168;51.684;6.954;2022-08-24T12:12:58;5.03;;;1.50;;
6269;SDS011;3168;51.684;6.954;2022-08-24T12:15:27;1.27;;;1.20;;
6269;SDS011;3168;51.684;6.954;2022-08-24T12:17:54;1.27;;;1.27;;
6269;SDS011;3168;51.684;6.954;2022-08-24T12:20:25;3.43;;;1.57;;
6269;SDS011;3168;51.684;6.954;2022-08-24T12:22:55;1.27;;;1.27;;
6269;SDS011;3168;51.684;6.954;2022-08-24T12:25:19;1.53;;;1.50;;
6269;SDS011;3168;51.684;6.954;2022-08-24T12:27:51;1.10;;;1.10;;
6269;SDS011;3168;51.684;6.954;2022-08-24T12:30:16;1.10;;;1.10;;
6269;SDS011;3168;51.684;6.954;2022-08-24T12:32:59;3.13;;;1.40;;
6269;SDS011;3168;51.684;6.954;2022-08-24T12:35:27;1.10;;;1.10;;
6269;SDS011;3168;51.684;6.954;2022-08-24T12:37:56;1.07;;;1.07;;
6269;SDS011;3168;51.684;6.954;2022-08-24T12:40:24;2.37;;;1.50;;
6269;SDS011;3168;51.684;6.954;2022-08-24T12:42:52;1.30;;;1.20;;
6269;SDS011;3168;51.684;6.954;2022-08-24T12:45:17;1.10;;;1.10;;
6269;SDS011;3168;51.684;6.954;2022-08-24T12:47:45;4.80;;;1.47;;
6269;SDS011;3168;51.684;6.954;2022-08-24T12:50:11;1.20;;;1.20;;
6269;SDS011;3168;51.684;6.954;2022-08-24T13:00:54;1.10;;;1.10;;
6269;SDS011;3168;51.684;6.954;2022-08-24T13:03:25;1.40;;;1.40;;
6269;SDS011;3168;51.684;6.954;2022-08-24T13:05:52;0.90;;;0.90;;
6269;SDS011;3168;51.684;6.954;2022-08-24T13:08:18;1.20;;;1.20;;
6269;SDS011;3168;51.684;6.954;2022-08-24T13:10:44;2.70;;;1.20;;
6269;SDS011;3168;51.684;6.954;2022-08-24T13:13:10;0.93;;;0.93;;
6269;SDS011;3168;51.684;6.954;2022-08-24T13:15:51;1.00;;;1.00;;
6269;SDS011;3168;51.684;6.954;2022-08-24T13:21:02;2.33;;;1.23;;
6269;SDS011;3168;51.684;6.954;2022-08-24T13:23:27;1.03;;;1.03;;
6269;SDS011;3168;51.684;6.954;2022-08-24T13:25:56;4.87;;;0.97;;
6269;SDS011;3168;51.684;6.954;2022-08-24T13:28:31;23.50;;;1.70;;
6269;SDS011;3168;51.684;6.954;2022-08-24T13:31:01;1.00;;;1.00;;
6269;SDS011;3168;51.684;6.954;2022-08-24T13:33:33;0.90;;;0.90;;
6269;SDS011;3168;51.684;6.954;2022-08-24T13:36:07;2.10;;;1.67;;
6269;SDS011;3168;51.684;6.954;2022-08-24T13:38:59;1.10;;;1.10;;
6269;SDS011;3168;51.684;6.954;2022-08-24T13:44:14;1.43;;;1.33;;
6269;SDS011;3168;51.684;6.954;2022-08-24T13:49:30;1.00;;;1.00;;
6269;SDS011;3168;51.684;6.954;2022-08-24T13:54:31;1.10;;;1.10;;
6269;SDS011;3168;51.684;6.954;2022-08-24T13:57:01;1.50;;;1.50;;
6269;SDS011;3168;51.684;6.954;2022-08-24T14:02:23;1.33;;;1.33;;
6269;SDS011;3168;51.684;6.954;2022-08-24T14:04:55;1.20;;;1.20;;
6269;SDS011;3168;51.684;6.954;2022-08-24T14:07:20;3.23;;;1.20;;
6269;SDS011;3168;51.684;6.954;2022-08-24T14:09:56;1.23;;;1.23;;
6269;SDS011;3168;51.684;6.954;2022-08-24T14:12:37;0.90;;;0.90;;
6269;SDS011;3168;51.684;6.954;2022-08-24T14:15:12;8.03;;;1.13;;
6269;SDS011;3168;51.684;6.954;2022-08-24T14:28:37;1.00;;;1.00;;
6269;SDS011;3168;51.684;6.954;2022-08-24T14:33:36;1.17;;;1.07;;
6269;SDS011;3168;51.684;6.954;2022-08-24T14:36:07;1.10;;;1.10;;
6269;SDS011;3168;51.684;6.954;2022-08-24T14:38:35;1.40;;;1.33;;
6269;SDS011;3168;51.684;6.954;2022-08-24T14:41:13;1.30;;;1.30;;
6269;SDS011;3168;51.684;6.954;2022-08-24T14:46:22;2.60;;;0.97;;
6269;SDS011;3168;51.684;6.954;2022-08-24T14:49:59;1.00;;;1.00;;
6269;SDS011;3168;51.684;6.954;2022-08-24T14:54:37;1.93;;;1.07;;
6269;SDS011;3168;51.684;6.954;2022-08-24T14:57:12;1.17;;;1.17;;
6269;SDS011;3168;51.684;6.954;2022-08-24T15:04:54;1.20;;;1.20;;
6269;SDS011;3168;51.684;6.954;2022-08-24T15:07:21;1.10;;;1.10;;
6269;SDS011;3168;51.684;6.954;2022-08-24T15:09:46;1.47;;;0.97;;
6269;SDS011;3168;51.684;6.954;2022-08-24T15:12:18;1.40;;;1.40;;
6269;SDS011;3168;51.684;6.954;2022-08-24T15:14:51;1.30;;;1.20;;
6269;SDS011;3168;51.684;6.954;2022-08-24T15:17:18;3.40;;;1.57;;
6269;SDS011;3168;51.684;6.954;2022-08-24T15:19:47;1.03;;;1.03;;
6269;SDS011;3168;51.684;6.954;2022-08-24T15:22:20;1.90;;;1.00;;
6269;SDS011;3168;51.684;6.954;2022-08-24T15:24:44;2.17;;;2.07;;
6269;SDS011;3168;51.684;6.954;2022-08-24T15:27:55;1.30;;;1.30;;
6269;SDS011;3168;51.684;6.954;2022-08-24T15:30:16;1.33;;;1.33;;
6269;SDS011;3168;51.684;6.954;2022-08-24T15:32:40;1.43;;;1.30;;
6269;SDS011;3168;51.684;6.954;2022-08-24T15:35:21;1.20;;;1.20;;
6269;SDS011;3168;51.684;6.954;2022-08-24T15:37:37;1.43;;;1.43;;
6269;SDS011;3168;51.684;6.954;2022-08-24T15:40:03;4.10;;;1.80;;
6269;SDS011;3168;51.684;6.954;2022-08-24T15:42:28;1.20;;;1.20;;
6269;SDS011;3168;51.684;6.954;2022-08-24T15:44:53;2.33;;;1.60;;
6269;SDS011;3168;51.684;6.954;2022-08-24T15:47:25;1.50;;;1.50;;
6269;SDS011;3168;51.684;6.954;2022-08-24T15:49:54;1.83;;;1.73;;
6269;SDS011;3168;51.684;6.954;2022-08-24T15:52:54;1.87;;;1.87;;
6269;SDS011;3168;51.684;6.954;2022-08-24T15:55:05;2.60;;;2.50;;
6269;SDS011;3168;51.684;6.954;2022-08-24T15:57:35;1.50;;;1.50;;
6269;SDS011;3168;51.684;6.954;2022-08-24T16:00:07;4.20;;;1.70;;
6269;SDS011;3168;51.684;6.954;2022-08-24T16:02:31;2.03;;;1.93;;
6269;SDS011;3168;51.684;6.954;2022-08-24T16:05:02;1.50;;;1.50;;
6269;SDS011;3168;51.684;6.954;2022-08-24T16:07:32;2.60;;;2.50;;
6269;SDS011;3168;51.684;6.954;2022-08-24T16:12:29;2.10;;;2.00;;
6269;SDS011;3168;51.684;6.954;2022-08-24T16:15:05;1.90;;;1.80;;
6269;SDS011;3168;51.684;6.954;2022-08-24T16:17:24;2.30;;;1.50;;
6269;SDS011;3168;51.684;6.954;2022-08-24T16:19:53;1.63;;;1.53;;
6269;SDS011;3168;51.684;6.954;2022-08-24T16:22:26;2.10;;;1.90;;
6269;SDS011;3168;51.684;6.954;2022-08-24T16:24:50;1.43;;;1.43;;
6269;SDS011;3168;51.684;6.954;2022-08-24T16:27:16;1.67;;;1.67;;
6269;SDS011;3168;51.684;6.954;2022-08-24T16:29:42;1.93;;;1.93;;
6269;SDS011;3168;51.684;6.954;2022-08-24T16:32:09;2.27;;;2.17;;
6269;SDS011;3168;51.684;6.954;2022-08-24T16:34:39;1.30;;;1.30;;
6269;SDS011;3168;51.684;6.954;2022-08-24T16:37:05;1.60;;;1.60;;
6269;SDS011;3168;51.684;6.954;2022-08-24T16:39:31;1.37;;;1.37;;
6269;SDS011;3168;51.684;6.954;2022-08-24T16:41:57;1.87;;;1.77;;
6269;SDS011;3168;51.684;6.954;2022-08-24T16:44:22;1.93;;;1.93;;